createdAt,value
2018-06-18T00:00:27.980Z,99237.66
2018-06-18T00:02:57.825Z,99239.84
2018-06-18T00:05:27.688Z,99238.53
2018-06-18T00:07:57.594Z,99234.95
2018-06-18T00:10:27.672Z,99236.20
2018-06-18T00:12:57.468Z,99238.81
2018-06-18T00:15:27.305Z,99224.31
2018-06-18T00:17:57.168Z,99229.39
2018-06-18T00:20:27.049Z,99231.69
2018-06-18T00:22:56.895Z,99240.45
2018-06-18T00:25:26.697Z,99241.70
2018-06-18T00:27:56.529Z,99231.69
2018-06-18T00:30:26.537Z,99226.75
2018-06-18T00:32:56.336Z,99227.94
2018-06-18T00:35:26.172Z,99232.83
2018-06-18T00:37:55.968Z,99233.55
2018-06-18T00:40:25.795Z,99232.67
2018-06-18T00:42:55.599Z,99229.61
2018-06-18T00:45:25.440Z,99219.66
2018-06-18T00:47:55.256Z,99225.27
2018-06-18T00:50:25.090Z,99217.45
2018-06-18T00:52:54.919Z,99222.83
2018-06-18T00:55:35.556Z,99211.66
2018-06-18T00:58:05.436Z,99217.27
2018-06-18T01:00:35.308Z,99214.75
2018-06-18T01:03:05.144Z,99218.80
2018-06-18T01:05:34.992Z,99219.22
2018-06-18T01:08:04.836Z,99216.85
2018-06-18T01:10:34.740Z,99225.77
2018-06-18T01:13:04.600Z,99225.40
2018-06-18T01:15:34.423Z,99231.80
2018-06-18T01:18:04.284Z,99229.53
2018-06-18T01:20:34.116Z,99234.08
2018-06-18T01:23:10.022Z,99236.71
2018-06-18T01:25:40.160Z,99238.41
2018-06-18T01:28:10.021Z,99236.95
2018-06-18T01:30:39.860Z,99240.05
2018-06-18T01:33:09.688Z,99244.41
2018-06-18T01:35:39.528Z,99242.38
2018-06-18T01:38:09.340Z,99240.69
2018-06-18T01:40:39.187Z,99241.81
2018-06-18T01:43:09.032Z,99242.20
2018-06-18T01:45:38.844Z,99248.06
2018-06-18T01:48:08.652Z,99244.46
2018-06-18T01:50:38.492Z,99243.59
2018-06-18T01:53:08.348Z,99249.00
2018-06-18T01:55:38.170Z,99248.55
2018-06-18T01:58:08.023Z,99241.91
2018-06-18T02:00:37.829Z,99233.03
2018-06-18T02:03:07.696Z,99235.44
2018-06-18T02:05:37.556Z,99230.81
2018-06-18T02:08:07.448Z,99236.09
2018-06-18T02:10:37.265Z,99232.08
2018-06-18T02:13:07.364Z,99226.30
2018-06-18T02:15:37.183Z,99228.63
2018-06-18T02:18:07.055Z,99234.14
2018-06-18T02:20:36.940Z,99231.66
2018-06-18T02:23:06.835Z,99229.70
2018-06-18T02:25:36.679Z,99232.19
2018-06-18T02:28:11.627Z,99226.84
2018-06-18T02:30:46.550Z,99227.06
2018-06-18T02:33:21.491Z,99226.34
2018-06-18T02:35:56.356Z,99220.86
2018-06-18T02:38:31.296Z,99225.48
2018-06-18T02:41:01.107Z,99231.98
2018-06-18T02:43:30.944Z,99229.39
2018-06-18T02:46:00.799Z,99230.73
2018-06-18T02:48:30.600Z,99230.84
2018-06-18T02:51:00.458Z,99236.78
2018-06-18T02:53:30.308Z,99238.72
2018-06-18T02:56:00.544Z,99243.00
2018-06-18T02:58:30.348Z,99245.11
2018-06-18T03:01:00.232Z,99242.21
2018-06-18T03:03:30.047Z,99250.05
2018-06-18T03:05:59.929Z,99249.41
2018-06-18T03:08:29.741Z,99248.10
2018-06-18T03:10:59.524Z,99248.86
2018-06-18T03:13:29.363Z,99252.69
2018-06-18T03:15:59.309Z,99253.14
2018-06-18T03:18:34.253Z,99253.72
2018-06-18T03:23:13.314Z,99262.22
2018-06-18T03:25:48.246Z,99261.98
2018-06-18T03:28:23.166Z,99258.73
2018-06-18T03:30:52.994Z,99257.66
2018-06-18T03:33:22.821Z,99261.91
2018-06-18T03:35:52.668Z,99261.89
2018-06-18T03:38:22.486Z,99268.06
2018-06-18T03:40:52.324Z,99272.38
2018-06-18T03:43:22.140Z,99269.16
2018-06-18T03:45:51.925Z,99273.40
2018-06-18T03:48:21.794Z,99272.25
2018-06-18T03:50:51.589Z,99273.73
2018-06-18T03:53:21.457Z,99279.11
2018-06-18T03:55:53.976Z,99279.88
2018-06-18T03:58:23.795Z,99273.73
2018-06-18T04:04:14.350Z,99277.56
2018-06-18T04:06:49.192Z,99283.71
2018-06-18T04:09:24.037Z,99287.67
2018-06-18T04:11:58.881Z,99293.94
2018-06-18T04:14:28.744Z,99295.23
2018-06-18T04:16:58.589Z,99297.86
2018-06-18T04:19:28.560Z,99298.36
2018-06-18T04:21:58.404Z,99300.95
2018-06-18T04:24:28.280Z,99292.75
2018-06-18T04:26:58.383Z,99292.75
2018-06-18T04:29:28.209Z,99297.38
2018-06-18T04:31:58.008Z,99296.56
2018-06-18T04:35:04.941Z,99297.05
2018-06-18T04:37:34.757Z,99301.28
2018-06-18T04:40:04.996Z,99302.45
2018-06-18T04:42:39.880Z,99303.17
2018-06-18T04:45:14.797Z,99305.51
2018-06-18T04:47:49.596Z,99301.77
2018-06-18T04:50:24.427Z,99294.61
2018-06-18T04:52:54.287Z,99303.94
2018-06-18T04:55:24.155Z,99309.63
2018-06-18T04:57:53.972Z,99313.42
2018-06-18T05:00:37.664Z,99313.33
2018-06-18T05:03:08.093Z,99313.77
2018-06-18T05:05:37.975Z,99320.65
2018-06-18T05:10:18.589Z,99322.77
2018-06-18T05:12:48.442Z,99323.25
2018-06-18T05:15:19.096Z,99322.09
2018-06-18T05:17:48.929Z,99320.34
2018-06-18T05:20:19.415Z,99320.20
2018-06-18T05:22:49.272Z,99320.97
2018-06-18T05:25:19.100Z,99315.28
2018-06-18T05:27:48.969Z,99322.09
2018-06-18T05:30:21.681Z,99329.01
2018-06-18T05:32:51.872Z,99330.01
2018-06-18T05:35:21.922Z,99329.58
2018-06-18T05:37:58.848Z,99325.67
2018-06-18T05:40:29.043Z,99327.96
2018-06-18T05:42:59.084Z,99328.58
2018-06-18T05:45:28.888Z,99322.28
2018-06-18T05:47:58.744Z,99329.57
2018-06-18T05:50:28.697Z,99331.34
2018-06-18T05:52:58.485Z,99329.16
2018-06-18T05:55:28.365Z,99330.95
2018-06-18T05:57:58.188Z,99332.80
2018-06-18T06:00:28.084Z,99339.52
2018-06-18T06:02:57.928Z,99334.19
2018-06-18T06:05:27.772Z,99339.02
2018-06-18T06:07:58.836Z,99346.33
2018-06-18T06:10:42.608Z,99345.89
2018-06-18T06:13:16.529Z,99346.23
2018-06-18T06:15:52.808Z,99350.48
2018-06-18T06:18:27.037Z,99351.30
2018-06-18T06:21:03.242Z,99347.11
2018-06-18T06:23:47.568Z,99339.39
2018-06-18T06:26:20.660Z,99341.21
2018-06-18T06:28:53.257Z,99234.65
2018-06-18T06:31:23.296Z,99338.73
2018-06-18T06:33:53.223Z,99343.18
2018-06-18T06:36:25.693Z,99340.19
2018-06-18T06:38:55.620Z,99349.41
2018-06-18T06:41:27.031Z,99346.00
2018-06-18T06:43:57.028Z,99345.61
2018-06-18T06:46:26.856Z,99339.45
2018-06-18T06:48:56.721Z,99334.64
2018-06-18T06:51:26.838Z,99331.95
2018-06-18T06:53:57.253Z,99329.47
2018-06-18T06:56:27.204Z,99325.34
2018-06-18T06:58:57.270Z,99323.20
2018-06-18T07:01:27.136Z,99321.12
2018-06-18T07:03:56.985Z,99317.50
2018-06-18T07:06:26.948Z,99316.22
2018-06-18T07:08:56.868Z,99325.52
2018-06-18T07:11:26.860Z,99316.00
2018-06-18T07:13:56.680Z,99215.86
2018-06-18T07:16:26.701Z,99323.30
2018-06-18T07:18:56.737Z,99324.39
2018-06-18T07:21:26.597Z,99324.19
2018-06-18T07:23:56.531Z,99317.89
2018-06-18T07:26:26.372Z,99316.38
2018-06-18T07:28:56.316Z,99315.99
2018-06-18T07:31:26.336Z,99320.25
2018-06-18T07:33:56.376Z,99319.00
2018-06-18T07:36:26.248Z,99308.66
2018-06-18T07:38:56.195Z,99308.61
2018-06-18T07:41:26.076Z,99309.05
2018-06-18T07:43:55.980Z,99301.77
2018-06-18T07:46:25.965Z,99306.66
2018-06-18T07:48:55.847Z,99308.52
2018-06-18T07:51:25.729Z,99309.19
2018-06-18T07:53:55.749Z,99309.15
2018-06-18T07:56:25.674Z,99314.98
2018-06-18T07:58:55.536Z,99313.27
2018-06-18T08:01:25.416Z,99318.59
2018-06-18T08:03:55.441Z,99320.89
2018-06-18T08:06:25.300Z,99325.47
2018-06-18T08:08:55.102Z,99320.69
2018-06-18T08:11:24.977Z,99316.15
2018-06-18T08:13:54.812Z,99214.55
2018-06-18T08:16:24.688Z,99313.34
2018-06-18T08:18:54.572Z,99311.78
2018-06-18T08:21:25.684Z,99303.11
2018-06-18T08:23:55.631Z,99299.36
2018-06-18T08:26:25.569Z,99292.78
2018-06-18T08:28:55.696Z,99291.25
2018-06-18T08:31:25.653Z,99285.95
2018-06-18T08:33:55.592Z,99282.45
2018-06-18T08:36:25.821Z,99292.05
2018-06-18T08:38:55.966Z,99291.09
2018-06-18T08:41:25.800Z,99280.59
2018-06-18T08:43:55.696Z,99288.59
2018-06-18T08:46:25.594Z,99286.78
2018-06-18T08:49:00.495Z,99291.77
2018-06-18T08:51:35.392Z,99285.64
2018-06-18T08:54:10.730Z,99282.48
2018-06-18T08:56:45.778Z,99270.88
2018-06-18T08:59:20.799Z,99279.68
2018-06-18T09:01:51.245Z,99276.01
2018-06-18T09:04:26.120Z,99275.98
2018-06-18T09:07:01.017Z,99277.02
2018-06-18T09:09:31.079Z,99174.21
2018-06-18T09:12:01.035Z,99265.64
2018-06-18T09:14:31.097Z,99272.55
2018-06-18T09:17:01.045Z,99268.92
2018-06-18T09:19:30.924Z,99269.41
2018-06-18T09:22:00.776Z,99260.19
2018-06-18T09:24:33.528Z,99264.42
2018-06-18T09:27:08.612Z,99254.63
2018-06-18T09:29:38.608Z,99256.85
2018-06-18T09:32:13.564Z,99250.54
2018-06-18T09:34:44.033Z,99256.89
2018-06-18T09:37:13.892Z,99252.50
2018-06-18T09:39:43.806Z,99255.49
2018-06-18T09:42:13.761Z,99247.94
2018-06-18T09:44:43.716Z,99246.42
2018-06-18T09:47:13.616Z,99248.08
2018-06-18T09:49:48.505Z,99251.33
2018-06-18T09:52:23.414Z,99249.13
2018-06-18T09:54:58.301Z,99257.47
2018-06-18T09:57:33.127Z,99253.23
2018-06-18T10:00:07.097Z,99253.25
2018-06-18T10:02:37.011Z,99169.28
2018-06-18T10:05:06.846Z,99252.48
2018-06-18T10:07:36.722Z,99253.23
2018-06-18T10:10:06.526Z,99253.50
2018-06-18T10:12:36.387Z,99242.65
2018-06-18T10:15:06.517Z,99242.52
2018-06-18T10:17:36.373Z,99148.58
2018-06-18T10:20:06.333Z,99223.28
2018-06-18T10:22:36.193Z,99229.03
2018-06-18T10:25:06.064Z,99231.06
2018-06-18T10:27:35.865Z,99227.47
2018-06-18T10:30:05.816Z,99237.20
2018-06-18T10:32:40.647Z,99222.86
2018-06-18T10:35:15.724Z,99227.92
2018-06-18T10:37:50.712Z,99231.83
2018-06-18T10:40:25.888Z,99221.20
2018-06-18T10:43:00.896Z,99232.56
2018-06-18T10:45:30.887Z,99236.64
2018-06-18T10:48:00.879Z,99230.14
2018-06-18T10:50:30.836Z,99234.11
2018-06-18T10:53:00.637Z,99229.99
2018-06-18T10:55:30.525Z,99225.18
2018-06-18T10:58:00.388Z,99229.02
2018-06-18T11:00:30.271Z,99225.63
2018-06-18T11:03:00.076Z,99115.06
2018-06-18T11:05:34.949Z,99215.20
2018-06-18T11:08:05.017Z,99216.18
2018-06-18T11:10:35.008Z,99211.34
2018-06-18T11:13:04.916Z,99207.27
2018-06-18T11:15:34.827Z,99210.89
2018-06-18T11:18:09.820Z,99210.53
2018-06-18T11:20:44.855Z,99204.52
2018-06-18T11:23:19.692Z,99210.77
2018-06-18T11:25:54.586Z,99203.64
2018-06-18T11:28:24.514Z,99192.53
2018-06-18T11:30:54.286Z,99202.36
2018-06-18T11:33:24.126Z,99207.32
2018-06-18T11:35:54.109Z,99203.50
2018-06-18T11:38:24.007Z,99197.39
2018-06-18T11:40:54.132Z,99208.61
2018-06-18T11:43:24.103Z,99201.80
2018-06-18T11:45:54.390Z,99210.47
2018-06-18T11:48:24.443Z,99210.61
2018-06-18T11:50:54.452Z,99220.51
2018-06-18T11:53:24.347Z,99201.10
2018-06-18T11:55:54.212Z,99203.58
2018-06-18T11:58:29.351Z,99213.02
2018-06-18T12:01:04.297Z,99210.02
2018-06-18T12:03:39.328Z,99208.30
2018-06-18T12:06:14.356Z,99206.52
2018-06-18T12:08:49.310Z,99205.20
2018-06-18T12:11:19.238Z,99200.56
2018-06-18T12:13:49.425Z,99198.38
2018-06-18T12:16:19.373Z,99198.05
2018-06-18T12:18:49.256Z,99193.41
2018-06-18T12:21:19.230Z,99181.58
2018-06-18T12:23:49.073Z,99178.95
2018-06-18T12:26:18.963Z,99126.67
2018-06-18T12:28:48.860Z,99173.56
2018-06-18T12:31:18.748Z,99182.80
2018-06-18T12:33:49.072Z,99187.19
2018-06-18T12:36:18.956Z,99186.02
2018-06-18T12:38:48.808Z,99181.31
2018-06-18T12:41:19.112Z,99178.23
2018-06-18T12:43:53.585Z,99180.85
2018-06-18T12:46:28.582Z,99176.50
2018-06-18T12:49:03.392Z,99177.63
2018-06-18T12:51:38.371Z,99194.04
2018-06-18T12:54:13.272Z,99198.41
2018-06-18T12:56:48.288Z,99200.09
2018-06-18T12:59:18.246Z,99203.50
2018-06-18T13:01:51.476Z,99200.20
2018-06-18T13:04:21.475Z,99200.08
2018-06-18T13:06:52.061Z,99203.03
2018-06-18T13:09:21.896Z,99214.39
2018-06-18T13:11:51.775Z,99219.08
2018-06-18T13:14:21.592Z,99232.31
2018-06-18T13:16:51.486Z,99234.15
2018-06-18T13:19:21.464Z,99241.56
2018-06-18T13:21:51.599Z,99252.64
2018-06-18T13:24:21.428Z,99264.55
2018-06-18T13:26:51.354Z,99279.91
2018-06-18T13:29:21.406Z,99269.17
2018-06-18T13:31:51.388Z,99267.73
2018-06-18T13:34:21.254Z,99267.89
2018-06-18T13:36:55.337Z,99268.43
2018-06-18T13:39:30.420Z,99274.72
2018-06-18T13:44:06.624Z,99276.79
2018-06-18T13:46:41.460Z,99287.81
2018-06-18T13:49:11.299Z,99297.30
2018-06-18T13:51:41.181Z,99301.58
2018-06-18T13:54:11.037Z,99301.23
2018-06-18T13:56:40.944Z,99315.37
2018-06-18T13:59:10.828Z,99194.89
2018-06-18T14:01:40.770Z,99329.23
2018-06-18T14:04:10.670Z,99318.92
2018-06-18T14:06:40.493Z,99329.52
2018-06-18T14:09:10.496Z,99348.80
2018-06-18T14:11:40.529Z,99386.22
2018-06-18T14:14:10.450Z,99381.41
2018-06-18T14:16:40.384Z,99401.23
2018-06-18T14:19:15.400Z,99409.81
2018-06-18T14:21:45.335Z,99417.70
2018-06-18T14:24:15.382Z,99425.69
2018-06-18T14:26:45.224Z,99435.08
2018-06-18T14:29:20.240Z,99425.78
2018-06-18T14:31:55.156Z,99414.17
2018-06-18T14:36:31.249Z,99396.72
2018-06-18T14:39:06.012Z,99374.72
2018-06-18T14:41:36.709Z,99370.09
2018-06-18T14:44:06.548Z,99367.91
2018-06-18T14:46:36.348Z,99361.80
2018-06-18T14:49:06.340Z,99358.55
2018-06-18T14:51:36.193Z,99345.79
2018-06-18T14:54:06.081Z,99336.72
2018-06-18T14:56:36.848Z,99340.45
2018-06-18T14:59:11.313Z,99340.38
2018-06-18T15:01:41.301Z,99334.11
2018-06-18T15:04:11.136Z,99339.48
2018-06-18T15:06:40.993Z,99335.70
2018-06-18T15:09:12.339Z,99328.90
2018-06-18T15:11:42.532Z,99321.25
2018-06-18T15:14:12.501Z,99319.53
2018-06-18T15:16:42.284Z,99321.80
2018-06-18T15:19:12.198Z,99317.83
2018-06-18T15:21:46.292Z,99324.54
2018-06-18T15:24:20.464Z,99326.44
2018-06-18T15:26:50.326Z,99338.60
2018-06-18T15:29:20.153Z,99333.32
2018-06-18T15:31:50.025Z,99333.50
2018-06-18T15:34:19.856Z,99341.29
2018-06-18T15:36:49.745Z,99340.84
2018-06-18T15:39:19.624Z,99350.16
2018-06-18T15:41:49.501Z,99346.72
2018-06-18T15:44:19.297Z,99354.02
2018-06-18T15:46:49.276Z,99356.13
2018-06-18T15:49:19.139Z,99361.34
2018-06-18T15:51:48.928Z,99365.52
2018-06-18T15:54:18.807Z,99363.47
2018-06-18T15:56:48.853Z,99360.59
2018-06-18T15:59:18.716Z,99365.33
2018-06-18T16:01:48.554Z,99369.94
2018-06-18T16:04:18.403Z,99358.17
2018-06-18T16:06:48.227Z,99354.86
2018-06-18T16:09:18.099Z,99358.34
2018-06-18T16:11:47.935Z,99355.80
2018-06-18T16:14:17.764Z,99357.20
2018-06-18T16:16:47.663Z,99358.92
2018-06-18T16:19:17.496Z,99356.52
2018-06-18T16:21:47.393Z,99358.47
2018-06-18T16:24:17.264Z,99366.56
2018-06-18T16:26:47.095Z,99366.56
2018-06-18T16:29:16.928Z,99371.52
2018-06-18T16:31:46.804Z,99375.66
2018-06-18T16:34:16.631Z,99372.79
2018-06-18T16:36:46.472Z,99378.98
2018-06-18T16:39:16.268Z,99376.67
2018-06-18T16:41:46.110Z,99238.97
2018-06-18T16:44:15.936Z,99390.87
2018-06-18T16:46:45.767Z,99397.78
2018-06-18T16:49:15.652Z,99405.49
2018-06-18T16:51:45.492Z,99407.16
2018-06-18T16:54:15.355Z,99412.54
2018-06-18T16:56:45.192Z,99402.78
2018-06-18T16:59:15.004Z,99414.96
2018-06-18T17:01:44.864Z,99421.08
2018-06-18T17:04:14.725Z,99421.98
2018-06-18T17:06:44.548Z,99430.37
2018-06-18T17:09:14.382Z,99421.33
2018-06-18T17:11:44.204Z,99295.28
2018-06-18T17:14:14.025Z,99425.58
2018-06-18T17:16:43.946Z,99435.14
2018-06-18T17:19:13.697Z,99442.28
2018-06-18T17:21:43.616Z,99443.88
2018-06-18T17:24:13.407Z,99448.31
2018-06-18T17:26:43.240Z,99453.90
2018-06-18T17:29:13.109Z,99459.28
2018-06-18T17:31:42.939Z,99461.95
2018-06-18T17:34:12.856Z,99460.77
2018-06-18T17:36:42.680Z,99462.25
2018-06-18T17:39:13.783Z,99467.27
2018-06-18T17:41:43.567Z,99475.71
2018-06-18T17:44:13.449Z,99483.94
2018-06-18T17:46:43.280Z,99484.91
2018-06-18T17:49:13.076Z,99489.20
2018-06-18T17:51:42.988Z,99488.46
2018-06-18T17:54:12.829Z,99493.51
2018-06-18T17:56:42.703Z,99493.20
2018-06-18T17:59:12.516Z,99493.19
2018-06-18T18:01:42.460Z,99489.70
2018-06-18T18:04:12.273Z,99488.73
2018-06-18T18:06:42.187Z,99492.47
2018-06-18T18:09:12.186Z,99494.74
2018-06-18T18:11:42.137Z,99501.17
2018-06-18T18:14:11.970Z,99493.13
2018-06-18T18:16:41.814Z,99496.93
2018-06-18T18:19:11.617Z,99495.87
2018-06-18T18:21:41.496Z,99504.95
2018-06-18T18:24:11.348Z,99501.77
2018-06-18T18:26:41.184Z,99506.79
2018-06-18T18:29:11.024Z,99511.66
2018-06-18T18:31:40.943Z,99511.22
2018-06-18T18:34:10.752Z,99514.84
2018-06-18T18:36:40.592Z,99524.01
2018-06-18T18:39:10.876Z,99536.56
2018-06-18T18:41:40.778Z,99538.70
2018-06-18T18:44:11.060Z,99548.78
2018-06-18T18:46:40.905Z,99552.97
2018-06-18T18:49:10.803Z,99556.07
2018-06-18T18:51:40.596Z,99565.63
2018-06-18T18:54:23.377Z,99575.05
2018-06-18T18:57:03.980Z,99572.94
2018-06-18T18:59:35.252Z,99572.91
2018-06-18T19:02:05.121Z,99573.75
2018-06-18T19:04:55.572Z,99581.53
2018-06-18T19:07:30.929Z,99581.06
2018-06-18T19:10:13.058Z,99586.20
2018-06-18T19:12:42.958Z,99591.29
2018-06-18T19:15:12.792Z,99597.95
2018-06-18T19:17:42.644Z,99604.59
2018-06-18T19:20:20.489Z,99605.90
2018-06-18T19:22:50.312Z,99609.79
2018-06-18T19:25:20.153Z,99613.73
2018-06-18T19:27:49.980Z,99608.97
2018-06-18T19:30:19.813Z,99606.97
2018-06-18T19:32:50.260Z,99610.92
2018-06-18T19:35:20.088Z,99611.94
2018-06-18T19:37:49.917Z,99609.31
2018-06-18T19:40:19.765Z,99606.05
2018-06-18T19:42:49.591Z,99604.30
2018-06-18T19:45:21.076Z,99601.92
2018-06-18T19:48:01.253Z,99604.04
2018-06-18T19:50:31.182Z,99608.24
2018-06-18T19:53:01.124Z,99611.80
2018-06-18T19:55:32.770Z,99619.70
2018-06-18T19:58:02.638Z,99615.80
2018-06-18T20:00:38.848Z,99609.72
2018-06-18T20:03:08.719Z,99606.29
2018-06-18T20:05:38.640Z,99598.63
2018-06-18T20:08:11.390Z,99599.26
2018-06-18T20:10:41.241Z,99592.30
2018-06-18T20:13:11.094Z,99587.97
2018-06-18T20:15:40.981Z,99589.71
2018-06-18T20:18:10.772Z,99595.23
2018-06-18T20:20:40.664Z,99596.47
2018-06-18T20:23:13.548Z,99588.95
2018-06-18T20:25:49.616Z,99587.89
2018-06-18T20:28:19.484Z,99594.33
2018-06-18T20:30:49.293Z,99600.94
2018-06-18T20:33:20.257Z,99600.28
2018-06-18T20:35:58.156Z,99596.00
2018-06-18T20:38:27.965Z,99599.28
2018-06-18T20:40:57.835Z,99597.91
2018-06-18T20:43:30.521Z,99604.13
2018-06-18T20:46:00.329Z,99599.73
2018-06-18T20:48:30.181Z,99595.72
2018-06-18T20:51:00.017Z,99593.10
2018-06-18T20:53:29.861Z,99589.20
2018-06-18T20:55:59.657Z,99601.59
2018-06-18T20:58:29.492Z,99595.44
2018-06-18T21:00:59.392Z,99602.23
2018-06-18T21:03:29.127Z,99605.79
2018-06-18T21:05:58.931Z,99607.19
2018-06-18T21:08:28.672Z,99607.88
2018-06-18T21:10:58.518Z,99600.73
2018-06-18T21:13:28.255Z,99601.00
2018-06-18T21:15:58.168Z,99604.73
2018-06-18T21:18:27.946Z,99600.09
2018-06-18T21:20:57.745Z,99605.00
2018-06-18T21:23:27.514Z,99603.31
2018-06-18T21:25:57.271Z,99612.39
2018-06-18T21:28:27.024Z,99486.64
2018-06-18T21:30:56.799Z,99603.63
2018-06-18T21:33:26.591Z,99602.24
2018-06-18T21:35:56.371Z,99588.84
2018-06-18T21:38:26.145Z,99587.22
2018-06-18T21:40:55.931Z,99584.84
2018-06-18T21:43:25.828Z,99592.39
2018-06-18T21:45:55.591Z,99585.64
2018-06-18T21:48:25.347Z,99584.84
2018-06-18T21:50:55.173Z,99588.44
2018-06-18T21:53:24.993Z,99584.11
2018-06-18T21:55:54.863Z,99580.98
2018-06-18T21:58:24.676Z,99588.98
2018-06-18T22:00:54.576Z,99583.16
2018-06-18T22:03:24.460Z,99582.16
2018-06-18T22:05:54.376Z,99585.25
2018-06-18T22:08:25.618Z,99582.63
2018-06-18T22:10:55.489Z,99585.81
2018-06-18T22:13:25.395Z,99585.92
2018-06-18T22:15:55.268Z,99593.31
2018-06-18T22:18:25.160Z,99594.96
2018-06-18T22:20:54.965Z,99601.05
2018-06-18T22:23:24.864Z,99607.09
2018-06-18T22:25:54.706Z,99606.36
2018-06-18T22:28:31.572Z,99606.50
2018-06-18T22:31:01.460Z,99600.80
2018-06-18T22:33:31.347Z,99595.53
2018-06-18T22:36:01.257Z,99596.41
2018-06-18T22:38:31.168Z,99595.70
2018-06-18T22:41:01.003Z,99595.66
2018-06-18T22:43:30.864Z,99596.98
2018-06-18T22:46:00.784Z,99595.66
2018-06-18T22:48:30.653Z,99593.52
2018-06-18T22:51:00.522Z,99593.41
2018-06-18T22:53:30.329Z,99596.70
2018-06-18T22:56:00.177Z,99595.77
2018-06-18T22:58:30.033Z,99597.14
2018-06-18T23:01:00.764Z,99601.24
2018-06-18T23:03:30.638Z,99600.94
2018-06-18T23:06:00.648Z,99601.88
2018-06-18T23:08:30.493Z,99604.13
2018-06-18T23:11:00.387Z,99600.30
2018-06-18T23:13:32.500Z,99602.69
2018-06-18T23:16:03.367Z,99599.33
2018-06-18T23:18:33.248Z,99597.08
2018-06-18T23:21:03.124Z,99603.70
2018-06-18T23:23:33.012Z,99604.27
2018-06-18T23:26:02.950Z,99599.22
2018-06-18T23:28:40.988Z,99603.45
2018-06-18T23:31:10.828Z,99604.42
2018-06-18T23:33:40.683Z,99609.69
2018-06-18T23:36:10.556Z,99609.00
2018-06-18T23:38:40.364Z,99600.80
2018-06-18T23:41:10.260Z,99599.58
2018-06-18T23:43:40.103Z,99606.81
2018-06-18T23:46:09.925Z,99601.55
2018-06-18T23:48:39.768Z,99601.73
2018-06-18T23:51:09.605Z,99607.63
2018-06-18T23:53:39.504Z,99606.76
2018-06-18T23:56:09.332Z,99602.05
2018-06-18T23:58:39.196Z,99597.84
